Time;durP1;ratioP1;P1;durP2;ratioP2;P2;SDS_P1;SDS_P2;PMS_P1;PMS_P2;Temp;Humidity;BMP_temperature;BMP_pressure;BME280_temperature;BME280_humidity;BME280_pressure;Samples;Min_cycle;Max_cycle;Signal;HPM_P1;HPM_P2
2022/01/28 00:01:36;;;;;;;;;;;21.40;49.10;;;;;;5084252;28;20012;-69
2022/01/28 00:04:12;;;;;;;;;;;21.40;49.10;;;;;;5087189;28;19919;-68
2022/01/28 00:06:38;;;;;;;;;;;21.40;49.10;;;;;;5085971;28;19922;-70
2022/01/28 00:09:03;;;;;;;;;;;21.40;49.10;;;;;;5088154;28;20019;-68
2022/01/28 00:11:29;;;;;;;;;;;21.40;49.20;;;;;;5083182;28;20427;-70
2022/01/28 00:14:06;;;;;;;;;;;21.30;49.10;;;;;;5083084;28;19919;-69
2022/01/28 00:19:56;;;;;;;;;;;21.30;49.20;;;;;;5083880;28;19924;-70
2022/01/28 00:38:32;;;;;;;;;;;21.20;49.20;;;;;;5085803;28;20451;-68
2022/01/28 00:40:58;;;;;;;;;;;21.20;49.20;;;;;;5086814;28;19988;-69
2022/01/28 00:43:23;;;;;;;;;;;21.20;49.20;;;;;;5084265;28;19912;-70
2022/01/28 00:45:49;;;;;;;;;;;21.20;49.20;;;;;;5085503;28;19923;-70
2022/01/28 00:48:14;;;;;;;;;;;21.20;49.20;;;;;;5084101;28;19951;-68
2022/01/28 00:50:42;;;;;;;;;;;21.20;49.20;;;;;;5087792;28;19919;-70
2022/01/28 00:53:08;;;;;;;;;;;21.10;49.20;;;;;;5084589;28;19922;-70
2022/01/28 00:55:34;;;;;;;;;;;21.10;49.10;;;;;;5085136;28;20003;-69
2022/01/28 00:57:59;;;;;;;;;;;21.10;49.20;;;;;;5082740;28;20057;-70
2022/01/28 01:00:25;;;;;;;;;;;21.10;49.20;;;;;;5084038;28;20320;-68
2022/01/28 01:02:50;;;;;;;;;;;21.10;49.20;;;;;;5082878;28;19919;-68
2022/01/28 01:05:16;;;;;;;;;;;21.10;49.20;;;;;;5101127;28;20709;-69
2022/01/28 01:07:42;;;;;;;;;;;21.00;49.20;;;;;;5084118;28;20086;-70
2022/01/28 01:10:08;;;;;;;;;;;21.10;49.20;;;;;;5084578;28;20011;-70
2022/01/28 01:12:38;;;;;;;;;;;21.00;49.20;;;;;;5084974;28;20011;-69
2022/01/28 01:15:04;;;;;;;;;;;21.00;49.20;;;;;;5085896;28;19916;-69
2022/01/28 01:17:35;;;;;;;;;;;21.00;49.10;;;;;;5083337;28;19916;-69
2022/01/28 01:20:15;;;;;;;;;;;21.00;49.20;;;;;;5079261;28;19912;-69
2022/01/28 01:22:41;;;;;;;;;;;21.00;49.20;;;;;;5084846;28;20386;-70
2022/01/28 01:25:16;;;;;;;;;;;21.00;49.20;;;;;;5079979;28;19923;-68
2022/01/28 01:27:42;;;;;;;;;;;21.00;49.20;;;;;;5081105;28;19947;-68
2022/01/28 01:30:08;;;;;;;;;;;21.00;49.20;;;;;;5087417;28;19916;-70
2022/01/28 01:32:34;;;;;;;;;;;21.00;49.20;;;;;;5084111;28;19916;-70
2022/01/28 01:34:59;;;;;;;;;;;21.00;49.20;;;;;;5081863;28;19916;-68
2022/01/28 01:37:25;;;;;;;;;;;20.90;49.20;;;;;;5082479;28;19912;-68
2022/01/28 01:39:52;;;;;;;;;;;20.90;49.20;;;;;;5022524;28;1794965;-69
2022/01/28 01:42:35;;;;;;;;;;;20.90;49.20;;;;;;5084855;28;20646;-68
2022/01/28 01:53:05;;;;;;;;;;;20.90;49.20;;;;;;5080708;28;19950;-68
2022/01/28 01:55:31;;;;;;;;;;;20.90;49.20;;;;;;5081930;28;20020;-70
2022/01/28 01:57:56;;;;;;;;;;;20.90;49.20;;;;;;5083242;28;20446;-70
2022/01/28 02:00:22;;;;;;;;;;;20.90;49.30;;;;;;5084951;28;20411;-68
2022/01/28 02:02:48;;;;;;;;;;;20.80;49.20;;;;;;5086704;28;20426;-69
2022/01/28 02:05:14;;;;;;;;;;;20.90;49.30;;;;;;5082932;28;19927;-70
2022/01/28 02:07:39;;;;;;;;;;;20.80;49.20;;;;;;5079686;28;19912;-69
2022/01/28 02:10:05;;;;;;;;;;;20.80;49.20;;;;;;5083253;28;19938;-68
2022/01/28 02:12:50;;;;;;;;;;;20.80;49.30;;;;;;5080731;28;20039;-69
2022/01/28 02:15:16;;;;;;;;;;;20.80;49.30;;;;;;5080839;28;19951;-70
2022/01/28 02:17:42;;;;;;;;;;;20.80;49.30;;;;;;5083063;28;19999;-68
2022/01/28 02:20:11;;;;;;;;;;;20.80;49.30;;;;;;5085467;28;20066;-68
2022/01/28 02:22:36;;;;;;;;;;;20.80;49.30;;;;;;5086802;28;19912;-68
2022/01/28 02:25:02;;;;;;;;;;;20.80;49.30;;;;;;5081694;28;19923;-68
2022/01/28 02:27:28;;;;;;;;;;;20.80;49.30;;;;;;5079941;28;19916;-70
2022/01/28 02:29:55;;;;;;;;;;;20.70;49.30;;;;;;5084289;28;19957;-70
2022/01/28 02:32:20;;;;;;;;;;;20.70;49.30;;;;;;5084161;28;19916;-68
2022/01/28 02:34:46;;;;;;;;;;;20.70;49.30;;;;;;5085206;28;20275;-68
2022/01/28 02:37:11;;;;;;;;;;;20.80;49.30;;;;;;5083623;28;19916;-68
2022/01/28 02:39:37;;;;;;;;;;;20.80;49.30;;;;;;5080480;28;20644;-69
2022/01/28 02:42:21;;;;;;;;;;;20.80;49.40;;;;;;5082024;28;19916;-69
2022/01/28 02:44:50;;;;;;;;;;;20.70;49.30;;;;;;5081112;28;20003;-68
2022/01/28 02:47:28;;;;;;;;;;;20.70;49.30;;;;;;5080451;28;19924;-70
2022/01/28 02:49:53;;;;;;;;;;;20.70;49.30;;;;;;5082843;28;19920;-70
2022/01/28 02:52:25;;;;;;;;;;;20.70;49.30;;;;;;5081606;28;19916;-68
2022/01/28 02:54:50;;;;;;;;;;;20.70;49.30;;;;;;5084796;28;19955;-69
2022/01/28 02:57:23;;;;;;;;;;;20.70;49.30;;;;;;5080475;28;20500;-70
2022/01/28 02:59:48;;;;;;;;;;;20.70;49.40;;;;;;5100412;28;19916;-68
2022/01/28 03:02:14;;;;;;;;;;;20.70;49.40;;;;;;5082830;28;19923;-69
2022/01/28 03:07:14;;;;;;;;;;;20.70;49.40;;;;;;5080875;28;19915;-68
2022/01/28 03:10:02;;;;;;;;;;;20.60;49.30;;;;;;5086313;28;20236;-68
2022/01/28 03:12:34;;;;;;;;;;;20.60;49.30;;;;;;5080921;28;20088;-70
2022/01/28 03:15:04;;;;;;;;;;;20.60;49.30;;;;;;5081104;28;20388;-70
2022/01/28 03:20:17;;;;;;;;;;;20.60;49.40;;;;;;5080328;28;19916;-69
2022/01/28 03:22:42;;;;;;;;;;;20.60;49.30;;;;;;5082452;28;20364;-70
2022/01/28 03:25:08;;;;;;;;;;;20.60;49.40;;;;;;5083184;28;19926;-68
2022/01/28 03:27:55;;;;;;;;;;;20.60;49.40;;;;;;5082039;28;19923;-69
2022/01/28 03:30:21;;;;;;;;;;;20.60;49.40;;;;;;5082140;28;19912;-69
2022/01/28 03:32:46;;;;;;;;;;;20.60;49.50;;;;;;5079777;28;19920;-68
2022/01/28 03:35:15;;;;;;;;;;;20.60;49.40;;;;;;5084214;28;20014;-70
2022/01/28 03:37:40;;;;;;;;;;;20.50;49.40;;;;;;5081372;28;20551;-70
2022/01/28 03:40:07;;;;;;;;;;;20.60;49.50;;;;;;5083944;28;19924;-69
2022/01/28 03:42:33;;;;;;;;;;;20.50;49.40;;;;;;5079847;28;20011;-69
2022/01/28 03:44:58;;;;;;;;;;;20.50;49.40;;;;;;5086064;28;20428;-70
2022/01/28 03:47:24;;;;;;;;;;;20.50;49.40;;;;;;5081636;28;19916;-69
2022/01/28 03:49:49;;;;;;;;;;;20.50;49.40;;;;;;5086649;28;19957;-70
2022/01/28 03:52:15;;;;;;;;;;;20.50;49.50;;;;;;5083920;28;19944;-69
2022/01/28 03:54:40;;;;;;;;;;;20.50;49.50;;;;;;5083465;28;19965;-68
2022/01/28 03:57:07;;;;;;;;;;;20.50;49.50;;;;;;5098543;28;19962;-70
2022/01/28 03:59:33;;;;;;;;;;;20.50;49.50;;;;;;5081936;28;20368;-68
2022/01/28 04:01:59;;;;;;;;;;;20.50;49.50;;;;;;5084457;28;20292;-69
2022/01/28 04:12:45;;;;;;;;;;;20.40;49.40;;;;;;5040448;28;19991;-69
2022/01/28 04:17:55;;;;;;;;;;;20.50;49.50;;;;;;5084173;28;20003;-69
2022/01/28 04:20:20;;;;;;;;;;;20.40;49.40;;;;;;5082473;28;20007;-68
2022/01/28 04:22:46;;;;;;;;;;;20.40;49.50;;;;;;5085784;28;20287;-70
2022/01/28 04:25:11;;;;;;;;;;;20.40;49.50;;;;;;5083073;28;19912;-70
2022/01/28 04:27:37;;;;;;;;;;;20.40;49.50;;;;;;5082465;28;19916;-70
2022/01/28 04:30:03;;;;;;;;;;;20.40;49.50;;;;;;5084153;28;19919;-70
2022/01/28 04:32:30;;;;;;;;;;;20.40;49.50;;;;;;5084251;28;20366;-69
2022/01/28 04:34:55;;;;;;;;;;;20.40;49.50;;;;;;5084770;28;20350;-68
2022/01/28 04:40:24;;;;;;;;;;;20.40;49.50;;;;;;5059633;28;20342;-70
2022/01/28 04:50:25;;;;;;;;;;;20.40;49.50;;;;;;5089033;28;20048;-68
2022/01/28 04:55:32;;;;;;;;;;;20.40;49.50;;;;;;5084129;28;19946;-68
2022/01/28 05:03:10;;;;;;;;;;;20.40;49.50;;;;;;5087295;28;20372;-68
2022/01/28 05:15:07;;;;;;;;;;;20.40;49.50;;;;;;5080848;28;20388;-68
2022/01/28 05:17:05;;;;;;;;;;;20.30;49.50;;;;;;5075536;28;20297;-69
2022/01/28 05:27:23;;;;;;;;;;;20.40;49.50;;;;;;5083604;28;20400;-70
2022/01/28 05:29:49;;;;;;;;;;;20.30;49.50;;;;;;5085917;28;19955;-70
2022/01/28 05:32:14;;;;;;;;;;;20.40;49.50;;;;;;5083900;28;19947;-70
2022/01/28 05:34:40;;;;;;;;;;;20.30;49.50;;;;;;5085977;28;19919;-70
2022/01/28 05:37:06;;;;;;;;;;;20.30;49.50;;;;;;5089093;28;19920;-69
2022/01/28 05:39:32;;;;;;;;;;;20.30;49.50;;;;;;5084834;28;21653;-68
2022/01/28 05:41:57;;;;;;;;;;;20.30;49.50;;;;;;5085697;28;19968;-70
2022/01/28 05:44:23;;;;;;;;;;;20.30;49.50;;;;;;5082495;28;19920;-68
2022/01/28 05:46:50;;;;;;;;;;;20.30;49.50;;;;;;5086279;28;20666;-68
2022/01/28 05:49:16;;;;;;;;;;;20.30;49.50;;;;;;5086905;28;20229;-70
2022/01/28 05:51:42;;;;;;;;;;;20.30;49.60;;;;;;5086861;28;19912;-70
2022/01/28 05:54:07;;;;;;;;;;;20.30;49.60;;;;;;5084142;28;19916;-70
2022/01/28 05:56:33;;;;;;;;;;;20.30;49.60;;;;;;5084345;28;19924;-70
2022/01/28 05:58:59;;;;;;;;;;;20.30;49.60;;;;;;5082724;28;19916;-69
2022/01/28 06:01:24;;;;;;;;;;;20.30;49.60;;;;;;5088299;28;19920;-68
2022/01/28 06:03:50;;;;;;;;;;;20.30;49.70;;;;;;5084296;28;19912;-69
2022/01/28 06:06:20;;;;;;;;;;;20.30;49.70;;;;;;5084469;28;19920;-70
2022/01/28 06:08:55;;;;;;;;;;;20.30;49.70;;;;;;5084847;28;19927;-69
2022/01/28 06:11:21;;;;;;;;;;;20.30;49.70;;;;;;5084572;28;19997;-69
2022/01/28 06:13:47;;;;;;;;;;;20.30;49.70;;;;;;5084423;28;19912;-68
2022/01/28 06:16:14;;;;;;;;;;;20.30;49.70;;;;;;5086154;28;19927;-70
2022/01/28 06:18:40;;;;;;;;;;;20.30;49.70;;;;;;5085812;28;19924;-68
2022/01/28 06:21:06;;;;;;;;;;;20.30;49.80;;;;;;5087514;28;20366;-68
2022/01/28 06:23:31;;;;;;;;;;;20.30;49.80;;;;;;5082832;28;19998;-70
2022/01/28 06:25:57;;;;;;;;;;;20.30;49.80;;;;;;5078170;28;20010;-69
2022/01/28 06:28:22;;;;;;;;;;;20.20;49.80;;;;;;5080094;28;19962;-67
2022/01/28 06:30:48;;;;;;;;;;;20.20;49.80;;;;;;5087048;28;19962;-68
2022/01/28 06:33:14;;;;;;;;;;;20.20;49.80;;;;;;5085739;28;20065;-68
2022/01/28 06:35:40;;;;;;;;;;;20.20;49.80;;;;;;5082686;28;20014;-70
2022/01/28 06:38:05;;;;;;;;;;;20.20;49.80;;;;;;5083956;28;19990;-73
2022/01/28 06:40:31;;;;;;;;;;;20.20;49.60;;;;;;5084677;28;20248;-70
2022/01/28 06:42:56;;;;;;;;;;;20.20;48.40;;;;;;5082962;28;19989;-68
2022/01/28 06:45:22;;;;;;;;;;;20.30;48.00;;;;;;5083582;28;19922;-69
2022/01/28 06:47:47;;;;;;;;;;;20.30;48.20;;;;;;5083003;28;19923;-66
2022/01/28 06:50:13;;;;;;;;;;;20.20;47.80;;;;;;5085779;28;19970;-67
2022/01/28 06:52:39;;;;;;;;;;;20.30;47.40;;;;;;5080833;28;20432;-70
2022/01/28 06:55:05;;;;;;;;;;;20.30;47.10;;;;;;5081505;28;20396;-66
2022/01/28 06:57:31;;;;;;;;;;;20.30;46.90;;;;;;5079554;28;20020;-68
2022/01/28 06:59:57;;;;;;;;;;;20.30;47.10;;;;;;5083208;28;19923;-70
2022/01/28 07:02:22;;;;;;;;;;;20.30;47.60;;;;;;5080977;28;19973;-71
2022/01/28 07:04:48;;;;;;;;;;;20.30;48.10;;;;;;5082728;28;19918;-73
2022/01/28 07:07:14;;;;;;;;;;;20.30;48.30;;;;;;5082255;28;19958;-70
2022/01/28 07:09:39;;;;;;;;;;;20.40;48.60;;;;;;5081236;28;19940;-70
2022/01/28 07:12:05;;;;;;;;;;;20.40;48.80;;;;;;5078520;28;19919;-71
2022/01/28 07:14:31;;;;;;;;;;;20.40;49.10;;;;;;5084112;28;19916;-71
2022/01/28 07:16:56;;;;;;;;;;;20.40;49.20;;;;;;5085788;28;19923;-72
2022/01/28 07:19:22;;;;;;;;;;;20.40;49.50;;;;;;5085308;28;20365;-72
2022/01/28 07:21:47;;;;;;;;;;;20.50;49.80;;;;;;5083913;28;19938;-72
2022/01/28 07:24:13;;;;;;;;;;;20.50;50.00;;;;;;5081544;28;19978;-73
2022/01/28 07:26:38;;;;;;;;;;;20.60;50.10;;;;;;5084272;28;19916;-74
2022/01/28 07:29:04;;;;;;;;;;;20.60;50.30;;;;;;5085884;28;19946;-72
2022/01/28 07:31:30;;;;;;;;;;;20.60;50.30;;;;;;5085846;28;19942;-70
2022/01/28 07:33:55;;;;;;;;;;;20.60;50.20;;;;;;5079811;28;19920;-72
2022/01/28 07:36:21;;;;;;;;;;;20.60;49.90;;;;;;5083524;28;19962;-71
2022/01/28 07:38:46;;;;;;;;;;;20.70;49.80;;;;;;5081265;28;19943;-70
2022/01/28 07:41:12;;;;;;;;;;;20.70;49.60;;;;;;5081847;28;19951;-72
2022/01/28 07:43:39;;;;;;;;;;;20.70;49.50;;;;;;5083948;28;20050;-70
2022/01/28 07:46:05;;;;;;;;;;;20.70;49.40;;;;;;5085467;28;19934;-70
2022/01/28 07:48:31;;;;;;;;;;;20.70;49.30;;;;;;5081230;28;19920;-69
2022/01/28 07:50:56;;;;;;;;;;;20.70;49.20;;;;;;5084700;28;19916;-70
2022/01/28 07:53:22;;;;;;;;;;;20.80;49.20;;;;;;5085961;28;19919;-70
2022/01/28 07:55:48;;;;;;;;;;;20.80;49.20;;;;;;5082796;28;19978;-72
2022/01/28 07:58:13;;;;;;;;;;;20.80;49.20;;;;;;5084759;28;20276;-69
2022/01/28 08:00:38;;;;;;;;;;;20.80;49.20;;;;;;5088735;28;19943;-70
2022/01/28 08:03:04;;;;;;;;;;;20.80;49.20;;;;;;5083405;28;20363;-70
2022/01/28 08:05:30;;;;;;;;;;;20.80;49.30;;;;;;5081224;28;20221;-68
2022/01/28 08:07:55;;;;;;;;;;;20.90;49.90;;;;;;5082699;28;20057;-71
2022/01/28 08:10:21;;;;;;;;;;;21.10;50.00;;;;;;5088099;28;19949;-70
2022/01/28 08:12:47;;;;;;;;;;;21.30;49.40;;;;;;5079740;28;19912;-71
2022/01/28 08:15:14;;;;;;;;;;;21.30;49.10;;;;;;5089043;28;19924;-69
2022/01/28 08:17:39;;;;;;;;;;;21.50;49.00;;;;;;5087147;28;19997;-74
2022/01/28 08:20:05;;;;;;;;;;;21.70;48.70;;;;;;5083558;28;20348;-71
2022/01/28 08:22:31;;;;;;;;;;;21.60;48.40;;;;;;5087908;28;19916;-68
2022/01/28 08:24:56;;;;;;;;;;;21.50;48.20;;;;;;5086119;28;19921;-73
2022/01/28 08:27:22;;;;;;;;;;;21.50;48.30;;;;;;5085348;28;19988;-72
2022/01/28 08:29:47;;;;;;;;;;;21.40;48.30;;;;;;5086598;28;20066;-72
2022/01/28 08:32:12;;;;;;;;;;;21.40;48.40;;;;;;5084504;28;20003;-73
2022/01/28 08:34:38;;;;;;;;;;;21.40;48.30;;;;;;5086462;28;20409;-68
2022/01/28 08:37:04;;;;;;;;;;;21.50;48.50;;;;;;5083932;28;19923;-68
2022/01/28 08:39:34;;;;;;;;;;;21.40;48.40;;;;;;5084787;28;19920;-67
2022/01/28 08:42:00;;;;;;;;;;;21.40;48.40;;;;;;5087779;28;19932;-69
2022/01/28 08:44:26;;;;;;;;;;;21.40;48.40;;;;;;5084130;28;20314;-66
2022/01/28 08:46:51;;;;;;;;;;;21.40;48.30;;;;;;5083560;28;19952;-69
2022/01/28 08:49:17;;;;;;;;;;;21.40;48.30;;;;;;5085528;28;19952;-66
2022/01/28 08:51:42;;;;;;;;;;;21.30;48.30;;;;;;5086846;28;19927;-68
2022/01/28 08:54:08;;;;;;;;;;;21.40;48.30;;;;;;5088627;28;19928;-68
2022/01/28 08:56:33;;;;;;;;;;;21.40;48.30;;;;;;5087930;28;20324;-68
2022/01/28 08:58:59;;;;;;;;;;;21.40;48.30;;;;;;5083276;28;20038;-69
2022/01/28 09:01:24;;;;;;;;;;;21.30;48.30;;;;;;5087992;28;20298;-68
2022/01/28 09:03:51;;;;;;;;;;;21.30;48.30;;;;;;5085142;28;19916;-67
2022/01/28 09:06:17;;;;;;;;;;;21.30;48.30;;;;;;5085771;28;19961;-69
2022/01/28 09:08:44;;;;;;;;;;;21.30;48.30;;;;;;5085916;28;19919;-68
2022/01/28 09:13:47;;;;;;;;;;;21.30;48.20;;;;;;5085683;28;19996;-69
2022/01/28 09:16:13;;;;;;;;;;;21.30;48.30;;;;;;5083903;28;20421;-68
2022/01/28 09:18:39;;;;;;;;;;;21.30;48.30;;;;;;5080504;28;20008;-68
2022/01/28 09:21:04;;;;;;;;;;;21.20;48.20;;;;;;5088414;28;19908;-69
2022/01/28 09:23:30;;;;;;;;;;;21.30;48.40;;;;;;5085755;28;19920;-68
2022/01/28 09:25:55;;;;;;;;;;;21.30;48.40;;;;;;5087013;28;19920;-69
2022/01/28 09:28:21;;;;;;;;;;;21.20;48.30;;;;;;5082516;28;19913;-69
2022/01/28 09:30:46;;;;;;;;;;;21.30;48.40;;;;;;5085174;28;19947;-68
2022/01/28 09:33:12;;;;;;;;;;;21.30;48.30;;;;;;5082063;28;19920;-69
2022/01/28 09:35:38;;;;;;;;;;;21.30;48.30;;;;;;5085998;28;19926;-70
2022/01/28 09:38:04;;;;;;;;;;;21.30;48.90;;;;;;5085906;28;19916;-68
2022/01/28 09:40:29;;;;;;;;;;;21.30;48.30;;;;;;5087170;28;19927;-67
2022/01/28 09:42:55;;;;;;;;;;;21.20;48.30;;;;;;5080472;28;19912;-69
2022/01/28 09:45:23;;;;;;;;;;;21.30;48.40;;;;;;5086308;28;19975;-69
2022/01/28 09:47:53;;;;;;;;;;;21.20;48.30;;;;;;5085819;28;19916;-68
2022/01/28 09:50:21;;;;;;;;;;;21.20;48.30;;;;;;5084395;28;19927;-69
2022/01/28 09:52:47;;;;;;;;;;;21.30;48.40;;;;;;5085971;28;19912;-67
2022/01/28 09:55:12;;;;;;;;;;;21.20;48.30;;;;;;5086031;28;19916;-67
2022/01/28 09:57:38;;;;;;;;;;;21.20;48.30;;;;;;5079754;28;20256;-70
2022/01/28 10:00:05;;;;;;;;;;;21.20;48.30;;;;;;5086297;28;20360;-68
2022/01/28 10:02:46;;;;;;;;;;;21.20;48.30;;;;;;5086616;28;19916;-67
2022/01/28 10:05:27;;;;;;;;;;;21.20;48.30;;;;;;5083663;28;19916;-66
2022/01/28 10:08:05;;;;;;;;;;;21.20;48.30;;;;;;5081225;28;19966;-68
2022/01/28 10:10:43;;;;;;;;;;;21.20;48.30;;;;;;5085417;28;19916;-68
2022/01/28 10:13:11;;;;;;;;;;;21.20;48.40;;;;;;5080268;28;20066;-69
2022/01/28 10:15:50;;;;;;;;;;;21.20;48.40;;;;;;5081136;28;19970;-69
2022/01/28 10:18:16;;;;;;;;;;;21.20;48.40;;;;;;5079608;28;20416;-69
2022/01/28 10:20:42;;;;;;;;;;;21.20;48.40;;;;;;5080415;28;19916;-68
2022/01/28 10:23:11;;;;;;;;;;;21.20;48.40;;;;;;5083944;28;19930;-69
2022/01/28 10:25:38;;;;;;;;;;;21.20;49.00;;;;;;5085172;28;20367;-68
2022/01/28 10:28:08;;;;;;;;;;;21.20;48.40;;;;;;5082791;28;19927;-69
2022/01/28 10:30:34;;;;;;;;;;;21.20;48.40;;;;;;5082301;28;19927;-68
2022/01/28 10:33:11;;;;;;;;;;;21.20;48.40;;;;;;5082235;28;19976;-67
2022/01/28 10:35:36;;;;;;;;;;;21.20;48.40;;;;;;5083055;28;20010;-68
2022/01/28 10:38:02;;;;;;;;;;;21.20;48.40;;;;;;5085328;28;20585;-67
2022/01/28 10:40:28;;;;;;;;;;;21.20;48.40;;;;;;5086838;28;19931;-68
2022/01/28 10:42:53;;;;;;;;;;;21.20;48.50;;;;;;5080200;28;19920;-68
2022/01/28 10:45:20;;;;;;;;;;;21.20;48.40;;;;;;5100779;28;19955;-69
2022/01/28 10:47:47;;;;;;;;;;;21.20;48.40;;;;;;5084775;28;20287;-67
2022/01/28 10:50:16;;;;;;;;;;;21.20;48.40;;;;;;5084706;28;19981;-69
2022/01/28 10:52:41;;;;;;;;;;;21.20;48.40;;;;;;5084926;28;20324;-68
2022/01/28 10:55:14;;;;;;;;;;;21.20;48.40;;;;;;5084046;28;19924;-69
2022/01/28 10:57:39;;;;;;;;;;;21.20;48.40;;;;;;5080183;28;19973;-69
2022/01/28 11:00:05;;;;;;;;;;;21.20;48.50;;;;;;5083226;28;19912;-70
2022/01/28 11:02:31;;;;;;;;;;;21.20;48.50;;;;;;5081842;28;19916;-69
2022/01/28 11:04:57;;;;;;;;;;;21.20;48.50;;;;;;5084538;28;20231;-68
2022/01/28 11:07:23;;;;;;;;;;;21.20;48.50;;;;;;5084357;28;19961;-69
2022/01/28 11:09:49;;;;;;;;;;;21.20;48.50;;;;;;5085017;28;20383;-69
2022/01/28 11:12:16;;;;;;;;;;;21.20;48.50;;;;;;5078527;28;19946;-67
2022/01/28 11:14:42;;;;;;;;;;;21.20;48.50;;;;;;5081556;28;19916;-67
2022/01/28 11:17:10;;;;;;;;;;;21.20;48.50;;;;;;5082535;28;20006;-68
2022/01/28 11:19:37;;;;;;;;;;;21.20;48.50;;;;;;5083298;28;19912;-66
2022/01/28 11:22:11;;;;;;;;;;;21.20;48.50;;;;;;5078418;28;20355;-68
2022/01/28 11:24:55;;;;;;;;;;;21.20;49.10;;;;;;5085465;28;19920;-67
2022/01/28 11:27:40;;;;;;;;;;;21.20;48.50;;;;;;5078586;28;20093;-68
2022/01/28 11:30:15;;;;;;;;;;;21.20;48.60;;;;;;5080107;28;20298;-68
2022/01/28 11:33:01;;;;;;;;;;;21.10;48.50;;;;;;5081509;28;19938;-67
2022/01/28 11:35:31;;;;;;;;;;;21.10;48.50;;;;;;5084057;28;20265;-68
2022/01/28 11:38:02;;;;;;;;;;;21.10;48.50;;;;;;5087847;28;19916;-68
2022/01/28 11:40:40;;;;;;;;;;;21.10;48.50;;;;;;5083458;28;19926;-68
2022/01/28 11:43:19;;;;;;;;;;;21.10;48.50;;;;;;5080772;28;19944;-68
2022/01/28 11:45:44;;;;;;;;;;;21.10;48.50;;;;;;5075834;28;20564;-68
2022/01/28 11:48:10;;;;;;;;;;;21.10;48.50;;;;;;5085391;28;19916;-69
2022/01/28 11:50:35;;;;;;;;;;;21.10;48.50;;;;;;5084165;28;19959;-68
2022/01/28 11:53:01;;;;;;;;;;;21.10;48.50;;;;;;5083156;28;19999;-67
2022/01/28 11:55:26;;;;;;;;;;;21.10;48.50;;;;;;5088960;28;19973;-67
2022/01/28 11:57:57;;;;;;;;;;;21.10;48.50;;;;;;5086169;28;19912;-68
2022/01/28 12:00:23;;;;;;;;;;;21.10;48.50;;;;;;5088436;28;19916;-67
2022/01/28 12:02:50;;;;;;;;;;;21.10;48.50;;;;;;5085841;28;20005;-68
2022/01/28 12:05:45;;;;;;;;;;;21.10;48.50;;;;;;5089729;28;20291;-69
2022/01/28 12:08:12;;;;;;;;;;;21.10;48.50;;;;;;5086993;28;19919;-68
2022/01/28 12:10:42;;;;;;;;;;;21.10;48.60;;;;;;5087435;28;19987;-68
2022/01/28 12:13:12;;;;;;;;;;;21.10;49.10;;;;;;5085141;28;20472;-70
2022/01/28 12:16:09;;;;;;;;;;;21.10;48.60;;;;;;5085521;28;19927;-69
2022/01/28 12:18:53;;;;;;;;;;;21.00;48.50;;;;;;5088798;28;20283;-69
2022/01/28 12:21:23;;;;;;;;;;;21.00;48.60;;;;;;5086346;28;20317;-68
2022/01/28 12:23:49;;;;;;;;;;;21.00;48.60;;;;;;5085839;28;20463;-68
2022/01/28 12:26:17;;;;;;;;;;;21.00;48.60;;;;;;5087259;28;19927;-68
2022/01/28 12:28:44;;;;;;;;;;;21.00;48.50;;;;;;5083095;28;19916;-68
2022/01/28 12:31:12;;;;;;;;;;;21.00;48.60;;;;;;5096073;28;19947;-69
2022/01/28 12:33:42;;;;;;;;;;;21.00;48.60;;;;;;5085580;28;19928;-69
2022/01/28 12:36:12;;;;;;;;;;;21.00;48.50;;;;;;5082447;28;19920;-70
2022/01/28 12:38:43;;;;;;;;;;;21.00;48.50;;;;;;5084096;28;19916;-67
2022/01/28 12:41:09;;;;;;;;;;;21.00;48.60;;;;;;5081771;28;19920;-67
2022/01/28 12:43:36;;;;;;;;;;;21.00;48.50;;;;;;5084055;28;20447;-69
2022/01/28 12:46:07;;;;;;;;;;;21.00;48.60;;;;;;5083663;28;19916;-69
2022/01/28 12:48:32;;;;;;;;;;;21.00;48.60;;;;;;5084305;28;19987;-70
2022/01/28 12:50:59;;;;;;;;;;;21.00;48.60;;;;;;5088230;28;20355;-69
2022/01/28 12:53:28;;;;;;;;;;;21.10;48.60;;;;;;5079826;28;20060;-69
2022/01/28 12:55:54;;;;;;;;;;;21.00;48.60;;;;;;5081657;28;19962;-67
2022/01/28 12:58:29;;;;;;;;;;;21.00;48.60;;;;;;5078566;28;20010;-69
2022/01/28 13:01:01;;;;;;;;;;;21.00;48.60;;;;;;5082712;28;19913;-70
2022/01/28 13:03:33;;;;;;;;;;;21.00;48.60;;;;;;5077707;28;19993;-69
2022/01/28 13:06:22;;;;;;;;;;;21.00;48.60;;;;;;5086135;28;19970;-68
2022/01/28 13:08:47;;;;;;;;;;;21.10;48.70;;;;;;5080135;28;20174;-69
2022/01/28 13:11:13;;;;;;;;;;;21.00;48.60;;;;;;5084303;28;20455;-70
2022/01/28 13:13:48;;;;;;;;;;;21.00;48.60;;;;;;5081264;28;20005;-68
2022/01/28 13:16:14;;;;;;;;;;;21.00;48.50;;;;;;5084885;28;19920;-70
2022/01/28 13:18:55;;;;;;;;;;;21.00;48.60;;;;;;5083028;28;19916;-68
2022/01/28 13:21:21;;;;;;;;;;;21.00;48.60;;;;;;5081156;28;20531;-68
2022/01/28 13:23:47;;;;;;;;;;;21.00;48.60;;;;;;5083822;28;19966;-70
2022/01/28 13:26:12;;;;;;;;;;;21.00;48.60;;;;;;5085050;28;19973;-69
2022/01/28 13:28:40;;;;;;;;;;;21.00;48.60;;;;;;5079712;28;19965;-69
2022/01/28 13:31:05;;;;;;;;;;;21.00;48.60;;;;;;5081700;28;19995;-67
2022/01/28 13:33:31;;;;;;;;;;;21.00;48.60;;;;;;5085279;28;19958;-68
2022/01/28 13:35:58;;;;;;;;;;;21.00;48.60;;;;;;5080480;28;20367;-67
2022/01/28 13:38:24;;;;;;;;;;;21.00;48.60;;;;;;5082714;28;19916;-69
2022/01/28 13:40:49;;;;;;;;;;;21.00;48.50;;;;;;5081245;28;20400;-71
2022/01/28 13:43:16;;;;;;;;;;;21.00;48.60;;;;;;5081129;28;20004;-67
2022/01/28 13:46:04;;;;;;;;;;;21.00;48.50;;;;;;5082783;28;20015;-70
2022/01/28 13:48:34;;;;;;;;;;;21.00;48.60;;;;;;5082625;28;20356;-67
2022/01/28 13:51:03;;;;;;;;;;;21.10;48.60;;;;;;5082776;28;19920;-69
2022/01/28 13:56:04;;;;;;;;;;;21.00;48.50;;;;;;5078101;28;19921;-68
2022/01/28 13:58:40;;;;;;;;;;;21.00;48.50;;;;;;5075951;28;19942;-68
2022/01/28 14:01:07;;;;;;;;;;;21.00;48.50;;;;;;5082831;28;19912;-68
2022/01/28 14:03:33;;;;;;;;;;;21.00;48.50;;;;;;5079886;28;19916;-69
2022/01/28 14:06:00;;;;;;;;;;;21.00;48.50;;;;;;5084623;28;20256;-69
2022/01/28 14:08:47;;;;;;;;;;;21.00;48.50;;;;;;5082138;28;19923;-69
2022/01/28 14:11:22;;;;;;;;;;;21.00;48.60;;;;;;5083499;28;19920;-70
2022/01/28 14:14:07;;;;;;;;;;;21.00;48.50;;;;;;5076611;28;19916;-69
2022/01/28 14:16:33;;;;;;;;;;;21.00;48.50;;;;;;5078458;28;19920;-68
2022/01/28 14:18:58;;;;;;;;;;;21.00;48.60;;;;;;5079723;28;20476;-67
2022/01/28 14:21:24;;;;;;;;;;;21.00;48.60;;;;;;5083042;28;19912;-68
2022/01/28 14:23:50;;;;;;;;;;;21.00;48.60;;;;;;5084175;28;20380;-70
2022/01/28 14:26:16;;;;;;;;;;;21.00;48.60;;;;;;5080637;28;19916;-69
2022/01/28 14:31:23;;;;;;;;;;;21.00;48.50;;;;;;5080865;28;19916;-70
2022/01/28 14:33:49;;;;;;;;;;;21.00;48.60;;;;;;5082358;28;20462;-70
2022/01/28 14:36:18;;;;;;;;;;;21.00;48.50;;;;;;5082122;28;19916;-67
2022/01/28 14:38:47;;;;;;;;;;;21.00;48.50;;;;;;5079083;28;19947;-67
2022/01/28 14:41:13;;;;;;;;;;;21.00;48.50;;;;;;5079701;28;19921;-69
2022/01/28 14:43:38;;;;;;;;;;;21.00;48.50;;;;;;5079960;28;20298;-69
2022/01/28 14:46:04;;;;;;;;;;;21.00;48.50;;;;;;5079868;28;19964;-67
2022/01/28 14:48:30;;;;;;;;;;;21.00;48.50;;;;;;5082071;28;19920;-70
2022/01/28 14:50:55;;;;;;;;;;;21.00;48.50;;;;;;5082711;28;20019;-69
2022/01/28 14:53:21;;;;;;;;;;;21.00;48.50;;;;;;5079473;28;20038;-67
2022/01/28 14:55:46;;;;;;;;;;;21.00;48.50;;;;;;5075217;28;19967;-69
2022/01/28 14:58:12;;;;;;;;;;;21.00;48.50;;;;;;5075371;28;20401;-70
2022/01/28 15:00:37;;;;;;;;;;;21.00;48.50;;;;;;5077578;28;19968;-70
2022/01/28 15:03:04;;;;;;;;;;;21.00;48.50;;;;;;5077828;28;19916;-69
2022/01/28 15:05:30;;;;;;;;;;;21.00;48.50;;;;;;5080884;28;19927;-69
2022/01/28 15:07:55;;;;;;;;;;;21.00;48.50;;;;;;5081122;28;19916;-70
2022/01/28 15:10:27;;;;;;;;;;;21.00;48.50;;;;;;5078796;28;19920;-67
2022/01/28 15:12:55;;;;;;;;;;;21.00;48.50;;;;;;5078266;28;19923;-70
2022/01/28 15:15:21;;;;;;;;;;;21.00;48.50;;;;;;5075671;28;19927;-68
2022/01/28 15:17:46;;;;;;;;;;;21.00;48.50;;;;;;5080118;28;20351;-69
2022/01/28 15:20:12;;;;;;;;;;;21.00;48.50;;;;;;5077290;28;19916;-68
2022/01/28 15:22:37;;;;;;;;;;;21.00;48.50;;;;;;5079323;28;20019;-70
2022/01/28 15:25:04;;;;;;;;;;;21.00;48.50;;;;;;5078785;28;19974;-68
2022/01/28 15:27:33;;;;;;;;;;;21.00;48.50;;;;;;5077989;28;19920;-67
2022/01/28 15:30:05;;;;;;;;;;;21.00;48.50;;;;;;5078806;28;19916;-70
2022/01/28 15:37:59;;;;;;;;;;;21.00;48.40;;;;;;5077902;28;19956;-70
2022/01/28 15:40:25;;;;;;;;;;;21.00;48.50;;;;;;5079620;28;20018;-70
2022/01/28 15:42:53;;;;;;;;;;;21.00;48.40;;;;;;5078369;28;19959;-68
2022/01/28 15:45:20;;;;;;;;;;;21.00;48.40;;;;;;5078964;28;20635;-69
2022/01/28 15:47:46;;;;;;;;;;;21.00;48.40;;;;;;5076898;28;19983;-69
2022/01/28 15:50:13;;;;;;;;;;;21.00;48.40;;;;;;5081870;28;20034;-70
2022/01/28 15:52:39;;;;;;;;;;;21.00;48.40;;;;;;5078273;28;19916;-69